createdAt,value
2023-02-16T00:01:01.679Z,14.80
2023-02-16T00:03:28.839Z,13.75
2023-02-16T00:05:56.536Z,14.35
2023-02-16T00:08:23.800Z,13.60
2023-02-16T00:11:09.207Z,13.80
2023-02-16T00:13:45.146Z,13.45
2023-02-16T00:16:19.841Z,12.60
2023-02-16T00:18:46.836Z,13.27
2023-02-16T00:21:13.872Z,13.30
2023-02-16T00:23:43.642Z,14.32
2023-02-16T00:26:14.559Z,12.90
2023-02-16T00:28:41.960Z,12.98
2023-02-16T00:31:22.046Z,13.32
2023-02-16T00:33:49.639Z,14.05
2023-02-16T00:36:20.304Z,12.88
2023-02-16T00:38:47.204Z,13.68
2023-02-16T00:41:42.799Z,14.18
2023-02-16T00:44:40.660Z,14.07
2023-02-16T00:47:26.826Z,13.02
2023-02-16T00:49:56.446Z,13.13
2023-02-16T00:52:34.700Z,13.98
2023-02-16T00:55:03.866Z,13.20
2023-02-16T00:57:34.008Z,12.93
2023-02-16T01:00:15.310Z,12.82
2023-02-16T01:02:43.928Z,12.20
2023-02-16T01:05:10.949Z,12.65
2023-02-16T01:07:56.319Z,10.55
2023-02-16T01:10:42.053Z,11.15
2023-02-16T01:13:08.997Z,10.80
2023-02-16T01:15:35.941Z,10.82
2023-02-16T01:18:02.889Z,10.15
2023-02-16T01:20:29.958Z,10.52
2023-02-16T01:22:56.867Z,10.30
2023-02-16T01:25:23.777Z,10.40
2023-02-16T01:27:53.132Z,10.32
2023-02-16T01:30:21.390Z,9.52
2023-02-16T01:32:51.752Z,10.32
2023-02-16T01:35:20.421Z,9.93
2023-02-16T01:37:47.711Z,10.40
2023-02-16T01:40:32.915Z,10.18
2023-02-16T01:43:29.355Z,9.73
2023-02-16T01:46:12.215Z,8.23
2023-02-16T01:48:39.127Z,7.90
2023-02-16T01:51:26.261Z,7.07
2023-02-16T01:53:55.429Z,6.53
2023-02-16T01:56:39.338Z,6.22
2023-02-16T01:59:15.714Z,6.05
2023-02-16T02:01:50.096Z,5.53
2023-02-16T02:04:59.183Z,5.57
2023-02-16T02:07:47.096Z,5.22
2023-02-16T02:10:32.298Z,5.05
2023-02-16T02:13:05.845Z,5.40
2023-02-16T02:15:33.708Z,5.40
2023-02-16T02:18:00.726Z,4.80
2023-02-16T02:20:55.421Z,5.13
2023-02-16T02:23:33.953Z,4.45
2023-02-16T02:26:20.079Z,3.95
2023-02-16T02:28:48.705Z,4.30
2023-02-16T02:31:41.906Z,3.85
2023-02-16T02:34:34.260Z,3.47
2023-02-16T02:37:11.238Z,3.40
2023-02-16T02:40:03.332Z,3.20
2023-02-16T02:42:34.039Z,2.90
2023-02-16T02:45:30.779Z,2.78
2023-02-16T02:47:58.318Z,2.60
2023-02-16T02:51:16.292Z,2.67
2023-02-16T02:54:22.039Z,2.55
2023-02-16T02:57:31.551Z,2.45
2023-02-16T03:00:19.284Z,2.30
2023-02-16T03:02:46.843Z,2.55
2023-02-16T03:05:13.838Z,2.80
2023-02-16T03:07:49.538Z,2.40
2023-02-16T03:10:45.366Z,2.35
2023-02-16T03:13:17.946Z,2.30
2023-02-16T03:15:45.736Z,2.97
2023-02-16T03:18:31.075Z,3.20
2023-02-16T03:21:16.453Z,2.20
2023-02-16T03:24:01.888Z,2.40
2023-02-16T03:26:47.521Z,2.40
2023-02-16T03:29:24.620Z,2.03
2023-02-16T03:31:52.589Z,2.13
2023-02-16T03:34:20.387Z,2.25
2023-02-16T03:36:52.451Z,2.50
2023-02-16T03:39:19.321Z,2.40
2023-02-16T03:41:50.725Z,2.38
2023-02-16T03:44:17.753Z,2.05
2023-02-16T03:46:44.826Z,2.00
2023-02-16T03:49:11.744Z,2.45
2023-02-16T03:51:38.702Z,2.63
2023-02-16T03:54:05.579Z,2.80
2023-02-16T03:56:32.368Z,2.70
2023-02-16T03:58:59.246Z,3.10
2023-02-16T04:01:26.443Z,3.33
2023-02-16T04:03:53.383Z,3.22
2023-02-16T04:06:20.218Z,3.40
2023-02-16T04:08:47.063Z,3.45
2023-02-16T04:11:32.395Z,3.28
2023-02-16T04:13:59.264Z,3.08
2023-02-16T04:16:26.115Z,3.10
2023-02-16T04:18:53.022Z,3.20
2023-02-16T04:21:19.832Z,3.30
2023-02-16T04:23:46.712Z,3.13
2023-02-16T04:26:13.551Z,3.22
2023-02-16T04:28:40.389Z,2.92
2023-02-16T04:31:07.646Z,3.05
2023-02-16T04:33:34.739Z,3.00
2023-02-16T04:36:01.586Z,2.80
2023-02-16T04:38:28.380Z,3.40
2023-02-16T04:40:55.269Z,2.63
2023-02-16T04:43:22.123Z,2.75
2023-02-16T04:45:48.992Z,2.70
2023-02-16T04:48:15.820Z,2.72
2023-02-16T04:50:42.728Z,2.80
2023-02-16T04:53:09.576Z,2.70
2023-02-16T04:55:36.392Z,2.90
2023-02-16T04:58:03.216Z,2.90
2023-02-16T05:00:30.165Z,2.90
2023-02-16T05:02:57.076Z,3.13
2023-02-16T05:05:23.954Z,2.80
2023-02-16T05:07:50.829Z,2.90
2023-02-16T05:10:17.687Z,3.22
2023-02-16T05:13:03.249Z,3.10
2023-02-16T05:15:30.129Z,2.80
2023-02-16T05:17:57.059Z,3.30
2023-02-16T05:20:43.951Z,3.00
2023-02-16T05:23:10.842Z,3.08
2023-02-16T05:25:37.717Z,3.65
2023-02-16T05:28:04.708Z,3.60
2023-02-16T05:30:31.650Z,3.53
2023-02-16T05:32:58.493Z,3.67
2023-02-16T05:35:25.349Z,3.40
2023-02-16T05:37:52.268Z,3.30
2023-02-16T05:40:19.195Z,3.70
2023-02-16T05:42:46.045Z,3.30
2023-02-16T05:45:12.915Z,3.47
2023-02-16T05:47:39.790Z,3.30
2023-02-16T05:50:07.264Z,3.47
2023-02-16T05:52:34.133Z,3.35
2023-02-16T05:55:00.974Z,3.00
2023-02-16T05:57:27.831Z,3.05
2023-02-16T05:59:54.591Z,3.10
2023-02-16T06:02:21.545Z,3.40
2023-02-16T06:04:48.405Z,3.35
2023-02-16T06:07:15.338Z,3.50
2023-02-16T06:09:42.186Z,3.63
2023-02-16T06:12:09.076Z,3.45
2023-02-16T06:14:35.928Z,3.90
2023-02-16T06:17:03.765Z,3.92
2023-02-16T06:19:30.735Z,4.85
2023-02-16T06:21:57.592Z,4.85
2023-02-16T06:24:24.619Z,5.43
2023-02-16T06:26:51.484Z,5.85
2023-02-16T06:29:18.312Z,5.50
2023-02-16T06:31:45.310Z,5.50
2023-02-16T06:34:12.313Z,6.60
2023-02-16T06:36:42.330Z,6.95
2023-02-16T06:39:09.429Z,7.85
2023-02-16T06:41:40.052Z,7.53
2023-02-16T06:44:09.543Z,7.20
2023-02-16T06:46:36.596Z,7.13
2023-02-16T06:49:03.753Z,7.75
2023-02-16T06:51:30.636Z,7.40
2023-02-16T06:53:57.559Z,7.60
2023-02-16T06:56:24.568Z,7.88
2023-02-16T06:58:51.561Z,7.55
2023-02-16T07:01:23.078Z,7.95
2023-02-16T07:03:51.010Z,7.47
2023-02-16T07:06:17.959Z,7.63
2023-02-16T07:08:44.995Z,7.00
2023-02-16T07:11:11.833Z,6.95
2023-02-16T07:13:38.743Z,6.75
2023-02-16T07:16:06.245Z,6.07
2023-02-16T07:18:33.559Z,6.03
2023-02-16T07:21:00.470Z,5.95
2023-02-16T07:23:27.505Z,6.22
2023-02-16T07:25:54.401Z,6.38
2023-02-16T07:28:21.268Z,7.03
2023-02-16T07:30:48.214Z,6.85
2023-02-16T07:33:15.617Z,6.85
2023-02-16T07:35:42.593Z,7.28
2023-02-16T07:38:09.799Z,6.70
2023-02-16T07:43:26.933Z,5.65
2023-02-16T07:46:08.722Z,5.07
2023-02-16T07:48:40.785Z,5.38
2023-02-16T07:51:23.151Z,4.32
2023-02-16T07:53:52.285Z,4.85
2023-02-16T07:56:26.167Z,4.53
2023-02-16T07:59:06.355Z,3.70
2023-02-16T08:01:35.950Z,3.35
2023-02-16T08:04:06.876Z,3.85
2023-02-16T08:06:59.888Z,2.83
2023-02-16T08:09:29.703Z,2.78
2023-02-16T08:12:00.738Z,2.90
2023-02-16T08:14:38.293Z,2.70
2023-02-16T08:17:07.902Z,2.20
2023-02-16T08:19:41.747Z,1.92
2023-02-16T08:22:12.270Z,2.00
2023-02-16T08:24:48.796Z,1.98
2023-02-16T08:27:24.688Z,2.25
2023-02-16T08:29:56.473Z,1.65
2023-02-16T08:32:28.940Z,1.48
2023-02-16T08:37:36.593Z,1.40
2023-02-16T08:40:11.182Z,1.67
2023-02-16T08:42:38.436Z,1.55
2023-02-16T08:45:15.939Z,1.65
2023-02-16T08:47:44.179Z,1.40
2023-02-16T08:50:11.516Z,1.60
2023-02-16T08:52:38.689Z,1.60
2023-02-16T08:55:05.798Z,1.42
2023-02-16T08:57:35.928Z,1.70
2023-02-16T09:00:21.608Z,1.60
2023-02-16T09:02:48.473Z,1.50
2023-02-16T09:05:16.016Z,1.50
2023-02-16T09:07:42.886Z,1.50
2023-02-16T09:10:09.997Z,1.75
2023-02-16T09:12:36.875Z,1.48
2023-02-16T09:15:03.871Z,1.65
2023-02-16T09:17:31.087Z,1.63
2023-02-16T09:19:57.937Z,1.60
2023-02-16T09:22:24.863Z,1.92
2023-02-16T09:24:51.915Z,1.80
2023-02-16T09:27:20.206Z,1.70
2023-02-16T09:29:47.026Z,1.80
2023-02-16T09:32:14.462Z,1.63
2023-02-16T09:34:42.257Z,1.70
2023-02-16T09:37:09.343Z,1.70
2023-02-16T09:39:36.134Z,1.60
2023-02-16T09:42:25.887Z,1.70
2023-02-16T09:45:13.824Z,1.80
2023-02-16T09:47:44.982Z,1.80
2023-02-16T09:50:43.873Z,1.90
2023-02-16T09:53:20.130Z,2.10
2023-02-16T09:56:17.965Z,1.95
2023-02-16T09:59:10.769Z,2.55
2023-02-16T10:01:58.069Z,2.40
2023-02-16T10:04:53.328Z,2.70
2023-02-16T10:07:35.691Z,2.60
2023-02-16T10:10:02.578Z,2.33
2023-02-16T10:12:38.739Z,2.80
2023-02-16T10:15:26.163Z,2.28
2023-02-16T10:18:02.858Z,2.63
2023-02-16T10:20:34.453Z,2.80
2023-02-16T10:23:16.422Z,2.60
2023-02-16T10:25:59.878Z,2.78
2023-02-16T10:28:50.691Z,3.53
2023-02-16T10:31:23.181Z,3.13
2023-02-16T10:34:22.946Z,3.17
2023-02-16T10:37:02.119Z,3.67
2023-02-16T10:39:50.645Z,3.30
2023-02-16T10:42:20.606Z,3.20
2023-02-16T10:45:19.037Z,3.08
2023-02-16T10:47:46.183Z,3.50
2023-02-16T10:50:33.152Z,3.65
2023-02-16T10:53:02.124Z,3.50
2023-02-16T10:55:29.115Z,3.30
2023-02-16T10:57:57.951Z,3.47
2023-02-16T11:00:41.721Z,3.85
2023-02-16T11:03:12.059Z,3.72
2023-02-16T11:05:39.647Z,4.03
2023-02-16T11:08:08.649Z,4.00
2023-02-16T11:10:38.299Z,4.45
2023-02-16T11:13:05.403Z,4.25
2023-02-16T11:15:32.281Z,4.25
2023-02-16T11:18:08.046Z,4.75
2023-02-16T11:20:52.813Z,4.00
2023-02-16T11:23:28.355Z,3.33
2023-02-16T11:26:10.126Z,2.92
2023-02-16T11:28:39.090Z,3.00
2023-02-16T11:31:39.547Z,3.20
2023-02-16T11:34:25.950Z,3.30
2023-02-16T11:36:53.535Z,2.95
2023-02-16T11:39:24.274Z,2.90
2023-02-16T11:41:52.913Z,3.08
2023-02-16T11:44:32.913Z,3.60
2023-02-16T11:47:04.294Z,3.30
2023-02-16T11:49:40.617Z,2.90
2023-02-16T11:52:23.156Z,2.95
2023-02-16T11:57:33.059Z,2.63
2023-02-16T12:00:01.328Z,2.50
2023-02-16T12:02:46.444Z,2.92
2023-02-16T12:05:20.547Z,2.47
2023-02-16T12:08:03.955Z,2.47
2023-02-16T12:10:39.896Z,2.67
2023-02-16T12:13:28.149Z,3.55
2023-02-16T12:16:02.208Z,4.47
2023-02-16T12:18:42.006Z,4.70
2023-02-16T12:21:47.347Z,4.70
2023-02-16T12:24:38.556Z,4.15
2023-02-16T12:27:17.396Z,3.50
2023-02-16T12:29:56.182Z,3.30
2023-02-16T12:32:30.353Z,3.40
2023-02-16T12:35:25.464Z,3.20
2023-02-16T12:38:14.170Z,3.00
2023-02-16T12:41:05.969Z,2.78
2023-02-16T12:43:42.021Z,2.77
2023-02-16T12:46:14.943Z,2.80
2023-02-16T12:48:47.063Z,2.67
2023-02-16T12:51:17.857Z,2.28
2023-02-16T12:54:00.310Z,2.50
2023-02-16T12:59:05.206Z,2.22
2023-02-16T13:01:33.821Z,1.73
2023-02-16T13:04:18.569Z,1.88
2023-02-16T13:06:59.117Z,1.88
2023-02-16T13:10:01.197Z,1.98
2023-02-16T13:12:50.192Z,1.98
2023-02-16T13:15:25.435Z,2.35
2023-02-16T13:18:03.192Z,3.00
2023-02-16T13:20:30.295Z,2.90
2023-02-16T13:23:31.395Z,3.33
2023-02-16T13:26:26.413Z,3.03
2023-02-16T13:29:23.556Z,3.28
2023-02-16T13:32:09.147Z,3.10
2023-02-16T13:34:55.094Z,3.40
2023-02-16T13:37:49.264Z,3.83
2023-02-16T13:40:19.085Z,4.20
2023-02-16T13:43:16.820Z,3.60
2023-02-16T13:45:45.767Z,4.75
2023-02-16T13:48:37.572Z,5.80
2023-02-16T13:51:07.421Z,6.65
2023-02-16T13:53:37.754Z,5.47
2023-02-16T13:56:33.234Z,5.15
2023-02-16T13:59:21.168Z,4.95
2023-02-16T14:01:49.227Z,3.60
2023-02-16T14:04:22.220Z,4.40
2023-02-16T14:07:18.429Z,3.63
2023-02-16T14:09:47.644Z,4.07
2023-02-16T14:12:18.996Z,3.58
2023-02-16T14:14:53.524Z,7.65
2023-02-16T14:17:21.650Z,4.13
2023-02-16T14:20:05.044Z,4.18
2023-02-16T14:22:40.701Z,3.90
2023-02-16T14:25:29.138Z,3.50
2023-02-16T14:28:05.300Z,3.10
2023-02-16T14:30:52.028Z,3.10
2023-02-16T14:33:22.713Z,2.85
2023-02-16T14:35:58.746Z,3.10
2023-02-16T14:38:35.004Z,3.40
2023-02-16T14:41:08.020Z,3.20
2023-02-16T14:43:39.999Z,2.70
2023-02-16T14:46:09.963Z,2.80
2023-02-16T14:49:05.065Z,3.17
2023-02-16T14:51:56.154Z,2.80
2023-02-16T14:54:41.342Z,2.70
2023-02-16T14:57:22.250Z,2.80
2023-02-16T15:00:00.930Z,2.63
2023-02-16T15:02:30.094Z,2.53
2023-02-16T15:04:57.011Z,2.33
2023-02-16T15:07:24.276Z,2.42
2023-02-16T15:09:57.154Z,2.53
2023-02-16T15:12:38.241Z,2.30
2023-02-16T15:15:07.646Z,2.28
2023-02-16T15:17:35.754Z,2.30
2023-02-16T15:20:07.420Z,2.50
2023-02-16T15:22:34.752Z,2.25
2023-02-16T15:25:05.693Z,2.35
2023-02-16T15:27:35.525Z,2.30
2023-02-16T15:30:20.640Z,2.22
2023-02-16T15:32:55.433Z,2.28
2023-02-16T15:35:24.690Z,2.40
2023-02-16T15:38:03.600Z,2.13
2023-02-16T15:40:32.820Z,2.28
2023-02-16T15:43:06.773Z,2.30
2023-02-16T15:45:37.672Z,2.25
2023-02-16T15:48:37.713Z,2.70
2023-02-16T15:51:07.694Z,3.13
2023-02-16T15:53:54.218Z,3.00
2023-02-16T15:56:28.100Z,2.78
2023-02-16T15:58:56.213Z,2.65
2023-02-16T16:01:36.024Z,2.83
2023-02-16T16:04:22.988Z,3.00
2023-02-16T16:06:51.081Z,2.60
2023-02-16T16:09:25.525Z,2.80
2023-02-16T16:11:57.941Z,2.50
2023-02-16T16:14:25.660Z,2.53
2023-02-16T16:16:52.509Z,2.70
2023-02-16T16:19:32.486Z,3.30
2023-02-16T16:21:59.528Z,3.47
2023-02-16T16:24:38.283Z,4.50
2023-02-16T16:27:07.857Z,4.78
2023-02-16T16:29:38.038Z,5.45
2023-02-16T16:32:06.379Z,6.13
2023-02-16T16:34:35.281Z,7.18
2023-02-16T16:37:06.978Z,7.57
2023-02-16T16:39:35.893Z,7.30
2023-02-16T16:42:17.776Z,7.40
2023-02-16T16:45:07.022Z,6.68
2023-02-16T16:47:35.386Z,6.65
2023-02-16T16:50:27.017Z,5.60
2023-02-16T16:52:55.043Z,4.80
2023-02-16T16:55:22.110Z,4.70
2023-02-16T16:58:05.953Z,4.18
2023-02-16T17:00:34.654Z,4.20
2023-02-16T17:03:02.606Z,5.00
2023-02-16T17:05:29.601Z,6.25
2023-02-16T17:07:56.637Z,6.80
2023-02-16T17:10:24.390Z,6.40
2023-02-16T17:12:53.322Z,6.55
2023-02-16T17:15:46.409Z,6.28
2023-02-16T17:18:15.105Z,5.85
2023-02-16T17:20:42.337Z,5.60
2023-02-16T17:23:11.812Z,5.55
2023-02-16T17:25:38.755Z,5.90
2023-02-16T17:28:05.903Z,5.25
2023-02-16T17:30:33.265Z,6.38
2023-02-16T17:33:00.190Z,7.63
2023-02-16T17:35:27.346Z,6.90
2023-02-16T17:37:54.174Z,7.43
2023-02-16T17:40:22.473Z,7.30
2023-02-16T17:42:49.744Z,7.00
2023-02-16T17:45:18.520Z,7.38
2023-02-16T17:47:45.817Z,7.95
2023-02-16T17:50:14.230Z,8.93
2023-02-16T17:52:41.746Z,8.02
2023-02-16T17:55:08.882Z,8.25
2023-02-16T17:57:36.306Z,8.88
2023-02-16T18:00:04.762Z,8.50
2023-02-16T18:02:31.989Z,9.27
2023-02-16T18:04:59.085Z,9.77
2023-02-16T18:07:26.127Z,9.73
2023-02-16T18:09:52.977Z,9.57
2023-02-16T18:12:19.800Z,10.23
2023-02-16T18:14:46.672Z,9.63
2023-02-16T18:17:13.665Z,9.52
2023-02-16T18:19:40.503Z,9.70
2023-02-16T18:22:07.404Z,9.25
2023-02-16T18:24:34.251Z,9.50
2023-02-16T18:27:01.264Z,9.73
2023-02-16T18:29:28.222Z,8.82
2023-02-16T18:31:55.065Z,8.93
2023-02-16T18:34:21.960Z,8.50
2023-02-16T18:36:48.917Z,8.40
2023-02-16T18:39:15.902Z,8.75
2023-02-16T18:41:42.787Z,9.00
2023-02-16T18:44:10.774Z,8.80
2023-02-16T18:46:37.628Z,8.40
2023-02-16T18:49:06.375Z,8.70
2023-02-16T18:51:33.661Z,8.95
2023-02-16T18:54:00.671Z,9.55
2023-02-16T18:56:27.747Z,9.15
2023-02-16T18:58:54.885Z,9.20
2023-02-16T19:01:28.849Z,9.50
2023-02-16T19:03:55.846Z,8.98
2023-02-16T19:06:22.826Z,8.23
2023-02-16T19:08:51.339Z,8.63
2023-02-16T19:11:19.705Z,9.60
2023-02-16T19:13:48.515Z,9.75
2023-02-16T19:16:15.952Z,10.50
2023-02-16T19:18:42.902Z,11.80
2023-02-16T19:21:10.879Z,12.85
2023-02-16T19:23:37.768Z,14.20
2023-02-16T19:26:08.600Z,13.35
2023-02-16T19:28:35.564Z,12.15
2023-02-16T19:31:03.619Z,12.48
2023-02-16T19:33:30.905Z,12.60
2023-02-16T19:36:01.762Z,12.32
2023-02-16T19:38:28.866Z,12.07
2023-02-16T19:40:56.002Z,11.50
2023-02-16T19:43:23.008Z,11.50
2023-02-16T19:45:49.900Z,11.00
2023-02-16T19:48:17.101Z,11.18
2023-02-16T19:50:44.290Z,9.63
2023-02-16T19:53:11.218Z,9.00
2023-02-16T19:55:42.089Z,8.40
2023-02-16T19:58:08.947Z,7.28
2023-02-16T20:00:36.875Z,7.40
2023-02-16T20:03:04.326Z,6.90
2023-02-16T20:05:31.201Z,7.15
2023-02-16T20:07:58.082Z,6.95
2023-02-16T20:10:24.925Z,6.72
2023-02-16T20:12:51.728Z,6.18
2023-02-16T20:15:18.675Z,5.95
2023-02-16T20:17:45.519Z,4.90
2023-02-16T20:20:12.712Z,4.97
2023-02-16T20:22:39.620Z,4.68
2023-02-16T20:25:06.712Z,3.83
2023-02-16T20:27:33.560Z,3.78
2023-02-16T20:30:03.059Z,3.38
2023-02-16T20:32:30.178Z,3.10
2023-02-16T20:34:57.084Z,2.78
2023-02-16T20:37:24.031Z,2.40
2023-02-16T20:39:51.124Z,2.35
2023-02-16T20:42:17.945Z,2.40
2023-02-16T20:44:44.793Z,2.28
2023-02-16T20:47:11.657Z,2.20
2023-02-16T20:49:38.539Z,2.20
2023-02-16T20:52:05.794Z,2.20
2023-02-16T20:54:32.672Z,2.10
2023-02-16T20:56:59.474Z,1.90
2023-02-16T20:59:26.501Z,2.00
2023-02-16T21:01:53.374Z,2.00
2023-02-16T21:04:20.276Z,2.17
2023-02-16T21:06:47.220Z,2.25
2023-02-16T21:09:14.147Z,2.88
2023-02-16T21:11:41.355Z,2.58
2023-02-16T21:14:08.461Z,2.50
2023-02-16T21:16:35.543Z,2.50
2023-02-16T21:19:04.072Z,3.20
2023-02-16T21:21:32.369Z,3.88
2023-02-16T21:23:59.237Z,3.65
2023-02-16T21:26:27.412Z,3.85
2023-02-16T21:28:54.519Z,3.40
2023-02-16T21:31:22.821Z,3.78
2023-02-16T21:33:49.756Z,3.75
2023-02-16T21:36:20.788Z,4.20
2023-02-16T21:38:47.731Z,3.85
2023-02-16T21:41:26.426Z,4.00
2023-02-16T21:44:07.622Z,4.60
2023-02-16T21:46:39.754Z,4.97
2023-02-16T21:49:07.797Z,5.88
2023-02-16T21:51:36.448Z,6.07
2023-02-16T21:54:08.729Z,5.60
2023-02-16T21:56:42.556Z,5.35
2023-02-16T21:59:13.852Z,4.78
2023-02-16T22:01:42.706Z,5.10
2023-02-16T22:04:14.193Z,4.80
2023-02-16T22:06:42.696Z,4.47
2023-02-16T22:09:11.483Z,4.50
2023-02-16T22:11:38.454Z,4.40
2023-02-16T22:14:05.333Z,4.20
2023-02-16T22:16:32.788Z,3.80
2023-02-16T22:19:01.355Z,3.75
2023-02-16T22:21:28.343Z,3.75
2023-02-16T22:23:55.540Z,3.55
2023-02-16T22:26:27.156Z,3.17
2023-02-16T22:28:54.250Z,3.35
2023-02-16T22:31:22.086Z,3.25
2023-02-16T22:33:54.094Z,3.35
2023-02-16T22:36:21.000Z,3.25
2023-02-16T22:38:47.828Z,2.97
2023-02-16T22:41:14.648Z,2.85
2023-02-16T22:43:41.534Z,3.30
2023-02-16T22:46:10.031Z,3.35
2023-02-16T22:48:36.910Z,3.60
2023-02-16T22:51:05.011Z,3.80
2023-02-16T22:53:31.972Z,3.53
2023-02-16T22:55:58.829Z,3.95
2023-02-16T22:58:25.739Z,3.38
2023-02-16T23:00:52.818Z,3.40
2023-02-16T23:03:19.725Z,3.72
2023-02-16T23:05:47.353Z,3.80
2023-02-16T23:08:14.308Z,3.92
2023-02-16T23:10:41.311Z,4.00
2023-02-16T23:13:08.766Z,3.80
2023-02-16T23:15:35.964Z,4.05
2023-02-16T23:18:02.803Z,4.10
2023-02-16T23:20:29.752Z,3.75
2023-02-16T23:22:56.621Z,4.18
2023-02-16T23:25:32.640Z,3.83
2023-02-16T23:28:00.761Z,3.83
2023-02-16T23:30:28.095Z,3.90
2023-02-16T23:32:55.076Z,3.92
2023-02-16T23:35:21.902Z,3.97
2023-02-16T23:37:48.689Z,3.95
2023-02-16T23:40:15.519Z,3.65
2023-02-16T23:42:42.342Z,3.28
2023-02-16T23:45:09.479Z,3.67
2023-02-16T23:47:36.473Z,3.67
2023-02-16T23:50:03.366Z,3.20
2023-02-16T23:52:30.294Z,3.15
2023-02-16T23:54:57.191Z,3.40
2023-02-16T23:57:24.000Z,3.58
2023-02-16T23:59:50.809Z,3.05
